sensor_id;sensor_type;location;lat;lon;timestamp;P1;durP1;ratioP1;P2;durP2;ratioP2
11187;SDS011;5650;52.700;7.306;2022-11-04T00:01:36;9.02;;;7.63;;
11187;SDS011;5650;52.700;7.306;2022-11-04T00:04:04;8.38;;;7.57;;
11187;SDS011;5650;52.700;7.306;2022-11-04T00:06:36;10.70;;;7.70;;
11187;SDS011;5650;52.700;7.306;2022-11-04T00:09:05;10.15;;;8.38;;
11187;SDS011;5650;52.700;7.306;2022-11-04T00:11:33;8.90;;;8.00;;
11187;SDS011;5650;52.700;7.306;2022-11-04T00:14:27;8.63;;;7.75;;
11187;SDS011;5650;52.700;7.306;2022-11-04T00:16:58;11.40;;;8.18;;
11187;SDS011;5650;52.700;7.306;2022-11-04T00:19:43;9.00;;;7.53;;
11187;SDS011;5650;52.700;7.306;2022-11-04T00:22:35;8.35;;;6.90;;
11187;SDS011;5650;52.700;7.306;2022-11-04T00:25:23;11.18;;;7.03;;
11187;SDS011;5650;52.700;7.306;2022-11-04T00:28:12;7.85;;;6.60;;
11187;SDS011;5650;52.700;7.306;2022-11-04T00:30:58;5.65;;;5.10;;
11187;SDS011;5650;52.700;7.306;2022-11-04T00:33:47;6.63;;;4.65;;
11187;SDS011;5650;52.700;7.306;2022-11-04T00:36:17;5.30;;;3.40;;
11187;SDS011;5650;52.700;7.306;2022-11-04T00:38:52;4.30;;;3.88;;
11187;SDS011;5650;52.700;7.306;2022-11-04T00:41:22;4.57;;;3.60;;
11187;SDS011;5650;52.700;7.306;2022-11-04T00:43:52;3.35;;;3.05;;
11187;SDS011;5650;52.700;7.306;2022-11-04T00:46:29;3.38;;;2.92;;
11187;SDS011;5650;52.700;7.306;2022-11-04T00:49:00;3.22;;;2.42;;
11187;SDS011;5650;52.700;7.306;2022-11-04T00:51:27;2.75;;;2.30;;
11187;SDS011;5650;52.700;7.306;2022-11-04T00:54:05;3.25;;;2.00;;
11187;SDS011;5650;52.700;7.306;2022-11-04T00:56:32;3.13;;;1.73;;
11187;SDS011;5650;52.700;7.306;2022-11-04T00:59:11;2.90;;;1.50;;
11187;SDS011;5650;52.700;7.306;2022-11-04T01:01:38;1.77;;;1.30;;
11187;SDS011;5650;52.700;7.306;2022-11-04T01:04:06;2.55;;;1.40;;
11187;SDS011;5650;52.700;7.306;2022-11-04T01:06:33;1.63;;;1.50;;
11187;SDS011;5650;52.700;7.306;2022-11-04T01:09:11;2.05;;;1.20;;
11187;SDS011;5650;52.700;7.306;2022-11-04T01:11:42;2.65;;;1.13;;
11187;SDS011;5650;52.700;7.306;2022-11-04T01:14:12;1.42;;;1.00;;
11187;SDS011;5650;52.700;7.306;2022-11-04T01:16:40;1.95;;;1.00;;
11187;SDS011;5650;52.700;7.306;2022-11-04T01:19:07;1.85;;;0.85;;
11187;SDS011;5650;52.700;7.306;2022-11-04T01:21:34;1.92;;;1.00;;
11187;SDS011;5650;52.700;7.306;2022-11-04T01:24:05;2.03;;;1.25;;
11187;SDS011;5650;52.700;7.306;2022-11-04T01:26:37;2.95;;;1.30;;
11187;SDS011;5650;52.700;7.306;2022-11-04T01:29:13;2.42;;;1.30;;
11187;SDS011;5650;52.700;7.306;2022-11-04T01:31:46;2.78;;;1.30;;
11187;SDS011;5650;52.700;7.306;2022-11-04T01:34:20;1.75;;;1.55;;
11187;SDS011;5650;52.700;7.306;2022-11-04T01:36:50;4.57;;;1.75;;
11187;SDS011;5650;52.700;7.306;2022-11-04T01:39:17;3.92;;;1.48;;
11187;SDS011;5650;52.700;7.306;2022-11-04T01:41:51;2.00;;;1.52;;
11187;SDS011;5650;52.700;7.306;2022-11-04T01:47:15;2.33;;;1.35;;
11187;SDS011;5650;52.700;7.306;2022-11-04T01:49:53;3.92;;;1.63;;
11187;SDS011;5650;52.700;7.306;2022-11-04T01:52:27;5.75;;;2.25;;
11187;SDS011;5650;52.700;7.306;2022-11-04T01:55:09;3.95;;;2.20;;
11187;SDS011;5650;52.700;7.306;2022-11-04T01:57:49;3.05;;;2.45;;
11187;SDS011;5650;52.700;7.306;2022-11-04T02:00:21;3.45;;;2.70;;
11187;SDS011;5650;52.700;7.306;2022-11-04T02:02:58;3.72;;;2.88;;
11187;SDS011;5650;52.700;7.306;2022-11-04T02:05:27;5.13;;;3.13;;
11187;SDS011;5650;52.700;7.306;2022-11-04T02:07:56;3.25;;;2.97;;
11187;SDS011;5650;52.700;7.306;2022-11-04T02:10:28;6.15;;;3.92;;
11187;SDS011;5650;52.700;7.306;2022-11-04T02:12:58;6.70;;;3.70;;
11187;SDS011;5650;52.700;7.306;2022-11-04T02:15:30;4.50;;;3.70;;
11187;SDS011;5650;52.700;7.306;2022-11-04T02:27:58;7.28;;;4.40;;
11187;SDS011;5650;52.700;7.306;2022-11-04T02:31:02;4.97;;;4.30;;
11187;SDS011;5650;52.700;7.306;2022-11-04T02:33:39;6.22;;;5.10;;
11187;SDS011;5650;52.700;7.306;2022-11-04T02:36:14;7.25;;;4.97;;
11187;SDS011;5650;52.700;7.306;2022-11-04T02:38:49;6.20;;;5.57;;
11187;SDS011;5650;52.700;7.306;2022-11-04T02:41:22;7.13;;;5.38;;
11187;SDS011;5650;52.700;7.306;2022-11-04T02:44:05;5.90;;;5.18;;
11187;SDS011;5650;52.700;7.306;2022-11-04T02:46:42;7.68;;;5.78;;
11187;SDS011;5650;52.700;7.306;2022-11-04T02:49:22;7.38;;;5.55;;
11187;SDS011;5650;52.700;7.306;2022-11-04T02:51:59;6.75;;;6.15;;
11187;SDS011;5650;52.700;7.306;2022-11-04T02:54:32;6.45;;;5.88;;
11187;SDS011;5650;52.700;7.306;2022-11-04T02:57:03;7.60;;;6.53;;
11187;SDS011;5650;52.700;7.306;2022-11-04T02:59:35;8.00;;;6.47;;
11187;SDS011;5650;52.700;7.306;2022-11-04T03:02:21;8.70;;;7.82;;
11187;SDS011;5650;52.700;7.306;2022-11-04T03:05:06;7.78;;;7.07;;
11187;SDS011;5650;52.700;7.306;2022-11-04T03:07:50;12.27;;;8.25;;
11187;SDS011;5650;52.700;7.306;2022-11-04T03:10:23;10.75;;;8.10;;
11187;SDS011;5650;52.700;7.306;2022-11-04T03:12:57;10.43;;;8.52;;
11187;SDS011;5650;52.700;7.306;2022-11-04T03:15:28;10.77;;;7.78;;
11187;SDS011;5650;52.700;7.306;2022-11-04T03:18:02;10.85;;;8.50;;
11187;SDS011;5650;52.700;7.306;2022-11-04T03:20:40;12.00;;;8.38;;
11187;SDS011;5650;52.700;7.306;2022-11-04T03:23:28;10.57;;;8.52;;
11187;SDS011;5650;52.700;7.306;2022-11-04T03:25:57;9.80;;;8.35;;
11187;SDS011;5650;52.700;7.306;2022-11-04T03:28:48;11.60;;;7.95;;
11187;SDS011;5650;52.700;7.306;2022-11-04T03:31:38;10.07;;;7.05;;
11187;SDS011;5650;52.700;7.306;2022-11-04T03:34:11;8.15;;;6.47;;
11187;SDS011;5650;52.700;7.306;2022-11-04T03:36:39;9.43;;;6.60;;
11187;SDS011;5650;52.700;7.306;2022-11-04T03:39:06;9.32;;;6.82;;
11187;SDS011;5650;52.700;7.306;2022-11-04T03:41:37;7.32;;;6.63;;
11187;SDS011;5650;52.700;7.306;2022-11-04T03:44:09;9.85;;;7.55;;
11187;SDS011;5650;52.700;7.306;2022-11-04T03:46:37;7.57;;;6.65;;
11187;SDS011;5650;52.700;7.306;2022-11-04T03:49:08;7.60;;;6.90;;
11187;SDS011;5650;52.700;7.306;2022-11-04T03:51:37;7.38;;;6.65;;
11187;SDS011;5650;52.700;7.306;2022-11-04T03:54:05;8.60;;;6.70;;
11187;SDS011;5650;52.700;7.306;2022-11-04T03:59:44;7.75;;;7.03;;
11187;SDS011;5650;52.700;7.306;2022-11-04T04:02:32;8.57;;;7.65;;
11187;SDS011;5650;52.700;7.306;2022-11-04T04:05:09;9.18;;;7.65;;
11187;SDS011;5650;52.700;7.306;2022-11-04T04:07:49;8.50;;;7.70;;
11187;SDS011;5650;52.700;7.306;2022-11-04T04:10:22;9.00;;;8.10;;
11187;SDS011;5650;52.700;7.306;2022-11-04T04:13:20;11.00;;;8.02;;
11187;SDS011;5650;52.700;7.306;2022-11-04T04:15:57;8.55;;;7.55;;
11187;SDS011;5650;52.700;7.306;2022-11-04T04:18:47;10.15;;;7.30;;
11187;SDS011;5650;52.700;7.306;2022-11-04T04:21:18;10.07;;;7.38;;
11187;SDS011;5650;52.700;7.306;2022-11-04T04:23:49;8.45;;;6.55;;
11187;SDS011;5650;52.700;7.306;2022-11-04T04:26:36;7.45;;;6.65;;
11187;SDS011;5650;52.700;7.306;2022-11-04T04:29:23;9.68;;;6.68;;
11187;SDS011;5650;52.700;7.306;2022-11-04T04:31:52;6.70;;;5.97;;
11187;SDS011;5650;52.700;7.306;2022-11-04T04:34:22;8.75;;;6.72;;
11187;SDS011;5650;52.700;7.306;2022-11-04T04:36:56;7.90;;;6.10;;
11187;SDS011;5650;52.700;7.306;2022-11-04T04:39:32;6.88;;;5.95;;
11187;SDS011;5650;52.700;7.306;2022-11-04T04:42:32;7.05;;;5.20;;
11187;SDS011;5650;52.700;7.306;2022-11-04T04:45:24;5.10;;;4.60;;
11187;SDS011;5650;52.700;7.306;2022-11-04T04:47:56;7.68;;;4.05;;
11187;SDS011;5650;52.700;7.306;2022-11-04T04:53:06;4.43;;;3.55;;
11187;SDS011;5650;52.700;7.306;2022-11-04T04:55:37;4.45;;;3.95;;
11187;SDS011;5650;52.700;7.306;2022-11-04T04:58:04;4.63;;;4.22;;
11187;SDS011;5650;52.700;7.306;2022-11-04T05:00:34;4.75;;;4.25;;
11187;SDS011;5650;52.700;7.306;2022-11-04T05:03:04;4.07;;;3.65;;
11187;SDS011;5650;52.700;7.306;2022-11-04T05:05:31;5.65;;;3.95;;
11187;SDS011;5650;52.700;7.306;2022-11-04T05:08:05;4.25;;;3.85;;
11187;SDS011;5650;52.700;7.306;2022-11-04T05:10:33;4.82;;;3.88;;
11187;SDS011;5650;52.700;7.306;2022-11-04T05:13:01;7.53;;;3.95;;
11187;SDS011;5650;52.700;7.306;2022-11-04T05:15:52;4.95;;;4.38;;
11187;SDS011;5650;52.700;7.306;2022-11-04T05:18:19;6.40;;;4.40;;
11187;SDS011;5650;52.700;7.306;2022-11-04T05:21:01;5.43;;;4.72;;
11187;SDS011;5650;52.700;7.306;2022-11-04T05:23:28;5.32;;;4.78;;
11187;SDS011;5650;52.700;7.306;2022-11-04T05:25:56;6.50;;;4.95;;
11187;SDS011;5650;52.700;7.306;2022-11-04T05:28:25;8.45;;;5.07;;
11187;SDS011;5650;52.700;7.306;2022-11-04T05:30:55;9.13;;;5.43;;
11187;SDS011;5650;52.700;7.306;2022-11-04T05:33:28;6.85;;;5.43;;
11187;SDS011;5650;52.700;7.306;2022-11-04T05:36:11;6.15;;;5.30;;
11187;SDS011;5650;52.700;7.306;2022-11-04T05:38:41;6.85;;;5.70;;
11187;SDS011;5650;52.700;7.306;2022-11-04T05:41:12;6.07;;;5.47;;
11187;SDS011;5650;52.700;7.306;2022-11-04T05:43:57;7.90;;;6.00;;
11187;SDS011;5650;52.700;7.306;2022-11-04T05:46:26;6.30;;;5.63;;
11187;SDS011;5650;52.700;7.306;2022-11-04T05:48:53;8.68;;;6.53;;
11187;SDS011;5650;52.700;7.306;2022-11-04T05:51:24;6.50;;;5.82;;
11187;SDS011;5650;52.700;7.306;2022-11-04T05:53:52;6.65;;;5.97;;
11187;SDS011;5650;52.700;7.306;2022-11-04T05:56:23;7.03;;;5.68;;
11187;SDS011;5650;52.700;7.306;2022-11-04T05:58:50;7.95;;;5.70;;
11187;SDS011;5650;52.700;7.306;2022-11-04T06:01:32;12.07;;;5.85;;
11187;SDS011;5650;52.700;7.306;2022-11-04T06:04:02;8.65;;;5.70;;
11187;SDS011;5650;52.700;7.306;2022-11-04T06:06:34;7.40;;;5.18;;
11187;SDS011;5650;52.700;7.306;2022-11-04T06:09:06;9.18;;;6.00;;
11187;SDS011;5650;52.700;7.306;2022-11-04T06:11:45;6.47;;;5.72;;
11187;SDS011;5650;52.700;7.306;2022-11-04T06:14:12;6.07;;;5.55;;
11187;SDS011;5650;52.700;7.306;2022-11-04T06:16:41;6.25;;;5.55;;
11187;SDS011;5650;52.700;7.306;2022-11-04T06:19:08;6.38;;;5.70;;
11187;SDS011;5650;52.700;7.306;2022-11-04T06:21:35;6.63;;;5.60;;
11187;SDS011;5650;52.700;7.306;2022-11-04T06:24:02;6.20;;;5.60;;
11187;SDS011;5650;52.700;7.306;2022-11-04T06:26:32;7.90;;;5.90;;
11187;SDS011;5650;52.700;7.306;2022-11-04T06:29:03;6.88;;;5.53;;
11187;SDS011;5650;52.700;7.306;2022-11-04T06:31:30;6.60;;;5.95;;
11187;SDS011;5650;52.700;7.306;2022-11-04T06:33:59;6.32;;;5.82;;
11187;SDS011;5650;52.700;7.306;2022-11-04T06:36:26;9.45;;;6.20;;
11187;SDS011;5650;52.700;7.306;2022-11-04T06:38:53;7.50;;;6.72;;
11187;SDS011;5650;52.700;7.306;2022-11-04T06:41:26;7.90;;;6.63;;
11187;SDS011;5650;52.700;7.306;2022-11-04T06:43:53;8.10;;;7.20;;
11187;SDS011;5650;52.700;7.306;2022-11-04T06:46:24;7.70;;;7.00;;
11187;SDS011;5650;52.700;7.306;2022-11-04T06:48:56;10.38;;;7.47;;
11187;SDS011;5650;52.700;7.306;2022-11-04T06:51:25;10.27;;;7.60;;
11187;SDS011;5650;52.700;7.306;2022-11-04T06:53:55;8.98;;;6.95;;
11187;SDS011;5650;52.700;7.306;2022-11-04T06:56:22;13.18;;;8.07;;
11187;SDS011;5650;52.700;7.306;2022-11-04T06:58:52;8.65;;;7.20;;
11187;SDS011;5650;52.700;7.306;2022-11-04T07:01:20;7.82;;;7.03;;
11187;SDS011;5650;52.700;7.306;2022-11-04T07:03:49;10.20;;;7.82;;
11187;SDS011;5650;52.700;7.306;2022-11-04T07:06:25;10.65;;;8.38;;
11187;SDS011;5650;52.700;7.306;2022-11-04T07:08:55;9.93;;;8.57;;
11187;SDS011;5650;52.700;7.306;2022-11-04T07:11:27;12.45;;;8.48;;
11187;SDS011;5650;52.700;7.306;2022-11-04T07:14:11;10.35;;;8.68;;
11187;SDS011;5650;52.700;7.306;2022-11-04T07:16:38;12.68;;;9.02;;
11187;SDS011;5650;52.700;7.306;2022-11-04T07:19:09;10.65;;;9.18;;
11187;SDS011;5650;52.700;7.306;2022-11-04T07:21:40;10.02;;;8.65;;
11187;SDS011;5650;52.700;7.306;2022-11-04T07:24:10;9.00;;;8.10;;
11187;SDS011;5650;52.700;7.306;2022-11-04T07:26:43;12.30;;;8.65;;
11187;SDS011;5650;52.700;7.306;2022-11-04T07:29:10;11.23;;;9.25;;
11187;SDS011;5650;52.700;7.306;2022-11-04T07:31:40;12.20;;;8.70;;
11187;SDS011;5650;52.700;7.306;2022-11-04T07:34:11;13.50;;;9.52;;
11187;SDS011;5650;52.700;7.306;2022-11-04T07:36:42;10.82;;;8.85;;
11187;SDS011;5650;52.700;7.306;2022-11-04T07:39:09;12.00;;;9.35;;
11187;SDS011;5650;52.700;7.306;2022-11-04T07:41:39;12.10;;;10.02;;
11187;SDS011;5650;52.700;7.306;2022-11-04T07:44:18;11.20;;;10.05;;
11187;SDS011;5650;52.700;7.306;2022-11-04T07:46:47;15.30;;;11.13;;
11187;SDS011;5650;52.700;7.306;2022-11-04T07:49:20;12.65;;;11.35;;
11187;SDS011;5650;52.700;7.306;2022-11-04T07:51:55;14.02;;;12.45;;
11187;SDS011;5650;52.700;7.306;2022-11-04T07:54:22;14.80;;;11.65;;
11187;SDS011;5650;52.700;7.306;2022-11-04T07:56:52;12.88;;;11.50;;
11187;SDS011;5650;52.700;7.306;2022-11-04T07:59:19;16.52;;;12.63;;
11187;SDS011;5650;52.700;7.306;2022-11-04T08:01:46;26.33;;;14.23;;
11187;SDS011;5650;52.700;7.306;2022-11-04T08:04:13;18.80;;;14.55;;
11187;SDS011;5650;52.700;7.306;2022-11-04T08:06:40;16.38;;;14.30;;
11187;SDS011;5650;52.700;7.306;2022-11-04T08:09:09;21.48;;;16.45;;
11187;SDS011;5650;52.700;7.306;2022-11-04T08:11:36;20.63;;;17.83;;
11187;SDS011;5650;52.700;7.306;2022-11-04T08:14:03;19.88;;;17.67;;
11187;SDS011;5650;52.700;7.306;2022-11-04T08:16:38;22.55;;;17.67;;
11187;SDS011;5650;52.700;7.306;2022-11-04T08:19:14;23.30;;;18.25;;
11187;SDS011;5650;52.700;7.306;2022-11-04T08:21:41;21.95;;;19.10;;
11187;SDS011;5650;52.700;7.306;2022-11-04T08:24:09;23.35;;;19.25;;
11187;SDS011;5650;52.700;7.306;2022-11-04T08:26:36;26.45;;;19.95;;
11187;SDS011;5650;52.700;7.306;2022-11-04T08:29:09;27.25;;;21.55;;
11187;SDS011;5650;52.700;7.306;2022-11-04T08:31:39;27.90;;;21.48;;
11187;SDS011;5650;52.700;7.306;2022-11-04T08:34:12;29.35;;;22.05;;
11187;SDS011;5650;52.700;7.306;2022-11-04T08:36:42;26.33;;;23.17;;
11187;SDS011;5650;52.700;7.306;2022-11-04T08:39:14;32.00;;;23.88;;
11187;SDS011;5650;52.700;7.306;2022-11-04T08:41:41;31.38;;;24.45;;
11187;SDS011;5650;52.700;7.306;2022-11-04T08:44:18;32.75;;;24.13;;
11187;SDS011;5650;52.700;7.306;2022-11-04T08:46:46;29.20;;;23.20;;
11187;SDS011;5650;52.700;7.306;2022-11-04T08:49:13;28.55;;;23.48;;
11187;SDS011;5650;52.700;7.306;2022-11-04T08:51:43;27.80;;;22.50;;
11187;SDS011;5650;52.700;7.306;2022-11-04T08:54:11;33.15;;;23.80;;
11187;SDS011;5650;52.700;7.306;2022-11-04T08:56:40;29.90;;;23.95;;
11187;SDS011;5650;52.700;7.306;2022-11-04T08:59:08;28.85;;;24.00;;
11187;SDS011;5650;52.700;7.306;2022-11-04T09:01:36;28.77;;;24.05;;
11187;SDS011;5650;52.700;7.306;2022-11-04T09:04:09;26.25;;;22.75;;
11187;SDS011;5650;52.700;7.306;2022-11-04T09:06:38;30.02;;;22.88;;
11187;SDS011;5650;52.700;7.306;2022-11-04T09:09:08;27.52;;;23.25;;
11187;SDS011;5650;52.700;7.306;2022-11-04T09:11:40;28.52;;;23.08;;
11187;SDS011;5650;52.700;7.306;2022-11-04T09:14:08;27.58;;;23.50;;
11187;SDS011;5650;52.700;7.306;2022-11-04T09:16:39;28.60;;;23.98;;
11187;SDS011;5650;52.700;7.306;2022-11-04T09:19:07;26.65;;;22.95;;
11187;SDS011;5650;52.700;7.306;2022-11-04T09:21:34;25.73;;;21.42;;
11187;SDS011;5650;52.700;7.306;2022-11-04T09:24:07;31.20;;;22.80;;
11187;SDS011;5650;52.700;7.306;2022-11-04T09:26:36;29.55;;;22.67;;
11187;SDS011;5650;52.700;7.306;2022-11-04T09:29:08;30.42;;;23.95;;
11187;SDS011;5650;52.700;7.306;2022-11-04T09:31:41;31.05;;;22.38;;
11187;SDS011;5650;52.700;7.306;2022-11-04T09:34:08;29.85;;;23.02;;
11187;SDS011;5650;52.700;7.306;2022-11-04T09:36:35;28.38;;;22.60;;
11187;SDS011;5650;52.700;7.306;2022-11-04T09:39:06;28.08;;;22.23;;
11187;SDS011;5650;52.700;7.306;2022-11-04T09:41:41;24.88;;;20.77;;
11187;SDS011;5650;52.700;7.306;2022-11-04T09:44:42;28.15;;;23.10;;
11187;SDS011;5650;52.700;7.306;2022-11-04T09:47:14;25.85;;;22.38;;
11187;SDS011;5650;52.700;7.306;2022-11-04T09:49:43;25.27;;;22.60;;
11187;SDS011;5650;52.700;7.306;2022-11-04T09:52:14;25.48;;;22.75;;
11187;SDS011;5650;52.700;7.306;2022-11-04T09:54:49;25.98;;;22.15;;
11187;SDS011;5650;52.700;7.306;2022-11-04T09:57:21;30.38;;;23.45;;
11187;SDS011;5650;52.700;7.306;2022-11-04T09:59:58;25.05;;;22.40;;
11187;SDS011;5650;52.700;7.306;2022-11-04T10:05:31;25.92;;;22.48;;
11187;SDS011;5650;52.700;7.306;2022-11-04T10:08:23;22.48;;;20.13;;
11187;SDS011;5650;52.700;7.306;2022-11-04T10:11:19;22.88;;;19.13;;
11187;SDS011;5650;52.700;7.306;2022-11-04T10:14:13;24.60;;;19.30;;
11187;SDS011;5650;52.700;7.306;2022-11-04T10:16:58;24.35;;;19.70;;
11187;SDS011;5650;52.700;7.306;2022-11-04T10:19:35;25.27;;;20.95;;
11187;SDS011;5650;52.700;7.306;2022-11-04T10:22:10;22.98;;;19.92;;
11187;SDS011;5650;52.700;7.306;2022-11-04T10:24:45;27.15;;;18.23;;
11187;SDS011;5650;52.700;7.306;2022-11-04T10:27:20;24.65;;;19.23;;
11187;SDS011;5650;52.700;7.306;2022-11-04T10:29:58;23.88;;;18.90;;
11187;SDS011;5650;52.700;7.306;2022-11-04T10:32:29;23.02;;;18.48;;
11187;SDS011;5650;52.700;7.306;2022-11-04T10:35:09;26.13;;;17.55;;
11187;SDS011;5650;52.700;7.306;2022-11-04T10:37:43;19.23;;;16.98;;
11187;SDS011;5650;52.700;7.306;2022-11-04T10:40:15;20.10;;;15.93;;
11187;SDS011;5650;52.700;7.306;2022-11-04T10:42:48;17.92;;;15.10;;
11187;SDS011;5650;52.700;7.306;2022-11-04T10:45:29;22.95;;;16.67;;
11187;SDS011;5650;52.700;7.306;2022-11-04T10:48:10;19.25;;;15.40;;
11187;SDS011;5650;52.700;7.306;2022-11-04T10:50:50;16.90;;;15.20;;
11187;SDS011;5650;52.700;7.306;2022-11-04T10:53:21;22.30;;;17.17;;
11187;SDS011;5650;52.700;7.306;2022-11-04T10:55:53;22.17;;;17.08;;
11187;SDS011;5650;52.700;7.306;2022-11-04T10:58:35;20.75;;;15.90;;
11187;SDS011;5650;52.700;7.306;2022-11-04T11:01:23;22.20;;;16.90;;
11187;SDS011;5650;52.700;7.306;2022-11-04T11:03:54;20.27;;;15.50;;
11187;SDS011;5650;52.700;7.306;2022-11-04T11:06:25;24.60;;;15.38;;
11187;SDS011;5650;52.700;7.306;2022-11-04T11:08:57;20.98;;;15.57;;
11187;SDS011;5650;52.700;7.306;2022-11-04T11:11:39;21.88;;;14.90;;
11187;SDS011;5650;52.700;7.306;2022-11-04T11:14:15;19.38;;;15.23;;
11187;SDS011;5650;52.700;7.306;2022-11-04T11:16:44;18.75;;;15.80;;
11187;SDS011;5650;52.700;7.306;2022-11-04T11:19:18;18.60;;;15.38;;
11187;SDS011;5650;52.700;7.306;2022-11-04T11:21:49;17.52;;;15.52;;
11187;SDS011;5650;52.700;7.306;2022-11-04T11:24:21;22.20;;;15.57;;
11187;SDS011;5650;52.700;7.306;2022-11-04T11:26:53;20.60;;;15.35;;
11187;SDS011;5650;52.700;7.306;2022-11-04T11:29:26;16.38;;;14.57;;
11187;SDS011;5650;52.700;7.306;2022-11-04T11:31:56;17.70;;;14.73;;
11187;SDS011;5650;52.700;7.306;2022-11-04T11:34:27;17.08;;;14.45;;
11187;SDS011;5650;52.700;7.306;2022-11-04T11:37:00;16.35;;;12.10;;
11187;SDS011;5650;52.700;7.306;2022-11-04T11:39:29;17.70;;;12.82;;
11187;SDS011;5650;52.700;7.306;2022-11-04T11:42:02;14.55;;;11.98;;
11187;SDS011;5650;52.700;7.306;2022-11-04T11:44:41;15.70;;;12.30;;
11187;SDS011;5650;52.700;7.306;2022-11-04T11:47:19;14.20;;;11.90;;
11187;SDS011;5650;52.700;7.306;2022-11-04T11:49:49;22.35;;;12.55;;
11187;SDS011;5650;52.700;7.306;2022-11-04T11:52:31;20.52;;;11.88;;
11187;SDS011;5650;52.700;7.306;2022-11-04T11:55:04;19.45;;;12.73;;
11187;SDS011;5650;52.700;7.306;2022-11-04T11:57:41;18.58;;;12.23;;
11187;SDS011;5650;52.700;7.306;2022-11-04T12:00:17;17.17;;;11.38;;
11187;SDS011;5650;52.700;7.306;2022-11-04T12:02:50;15.15;;;11.15;;
11187;SDS011;5650;52.700;7.306;2022-11-04T12:05:26;16.80;;;11.43;;
11187;SDS011;5650;52.700;7.306;2022-11-04T12:08:04;12.55;;;11.25;;
11187;SDS011;5650;52.700;7.306;2022-11-04T12:10:44;18.23;;;11.55;;
11187;SDS011;5650;52.700;7.306;2022-11-04T12:13:19;15.80;;;11.93;;
11187;SDS011;5650;52.700;7.306;2022-11-04T12:16:02;14.77;;;11.77;;
11187;SDS011;5650;52.700;7.306;2022-11-04T12:21:34;15.77;;;11.85;;
11187;SDS011;5650;52.700;7.306;2022-11-04T12:24:09;15.80;;;11.82;;
11187;SDS011;5650;52.700;7.306;2022-11-04T12:26:49;14.20;;;11.38;;
11187;SDS011;5650;52.700;7.306;2022-11-04T12:29:32;17.52;;;12.02;;
11187;SDS011;5650;52.700;7.306;2022-11-04T12:32:11;13.82;;;11.00;;
11187;SDS011;5650;52.700;7.306;2022-11-04T12:34:53;11.77;;;9.63;;
11187;SDS011;5650;52.700;7.306;2022-11-04T12:37:43;12.48;;;10.10;;
11187;SDS011;5650;52.700;7.306;2022-11-04T12:40:20;15.82;;;10.60;;
11187;SDS011;5650;52.700;7.306;2022-11-04T12:42:59;10.65;;;9.10;;
11187;SDS011;5650;52.700;7.306;2022-11-04T12:45:39;12.45;;;8.70;;
11187;SDS011;5650;52.700;7.306;2022-11-04T12:48:31;14.10;;;10.13;;
11187;SDS011;5650;52.700;7.306;2022-11-04T12:51:19;12.77;;;9.40;;
11187;SDS011;5650;52.700;7.306;2022-11-04T12:54:04;17.63;;;9.73;;
11187;SDS011;5650;52.700;7.306;2022-11-04T12:56:44;14.93;;;8.98;;
11187;SDS011;5650;52.700;7.306;2022-11-04T12:59:24;14.55;;;9.38;;
11187;SDS011;5650;52.700;7.306;2022-11-04T13:02:03;11.13;;;9.13;;
11187;SDS011;5650;52.700;7.306;2022-11-04T13:04:51;15.55;;;9.90;;
11187;SDS011;5650;52.700;7.306;2022-11-04T13:07:28;14.07;;;10.15;;
11187;SDS011;5650;52.700;7.306;2022-11-04T13:10:04;11.80;;;9.40;;
11187;SDS011;5650;52.700;7.306;2022-11-04T13:12:35;13.00;;;9.75;;
11187;SDS011;5650;52.700;7.306;2022-11-04T13:15:12;16.10;;;10.95;;
11187;SDS011;5650;52.700;7.306;2022-11-04T13:17:42;15.13;;;11.55;;
11187;SDS011;5650;52.700;7.306;2022-11-04T13:20:24;15.18;;;11.27;;
11187;SDS011;5650;52.700;7.306;2022-11-04T13:22:58;14.60;;;11.57;;
11187;SDS011;5650;52.700;7.306;2022-11-04T13:25:33;14.00;;;10.68;;
11187;SDS011;5650;52.700;7.306;2022-11-04T13:28:12;14.15;;;10.60;;
11187;SDS011;5650;52.700;7.306;2022-11-04T13:30:45;12.15;;;10.30;;
11187;SDS011;5650;52.700;7.306;2022-11-04T13:33:24;12.50;;;9.73;;
11187;SDS011;5650;52.700;7.306;2022-11-04T13:36:06;12.63;;;10.13;;
11187;SDS011;5650;52.700;7.306;2022-11-04T13:38:43;16.92;;;10.05;;
11187;SDS011;5650;52.700;7.306;2022-11-04T13:44:26;13.43;;;10.35;;
11187;SDS011;5650;52.700;7.306;2022-11-04T13:46:59;11.88;;;9.50;;
11187;SDS011;5650;52.700;7.306;2022-11-04T13:49:31;15.18;;;9.32;;
11187;SDS011;5650;52.700;7.306;2022-11-04T13:52:03;16.25;;;9.43;;
11187;SDS011;5650;52.700;7.306;2022-11-04T13:54:40;11.18;;;9.18;;
11187;SDS011;5650;52.700;7.306;2022-11-04T13:57:14;15.70;;;7.60;;
11187;SDS011;5650;52.700;7.306;2022-11-04T14:00:08;10.25;;;7.30;;
11187;SDS011;5650;52.700;7.306;2022-11-04T14:02:57;12.32;;;7.00;;
11187;SDS011;5650;52.700;7.306;2022-11-04T14:05:45;9.25;;;5.20;;
11187;SDS011;5650;52.700;7.306;2022-11-04T14:08:29;6.88;;;3.20;;
11187;SDS011;5650;52.700;7.306;2022-11-04T14:10:59;5.30;;;2.28;;
11187;SDS011;5650;52.700;7.306;2022-11-04T14:13:45;5.53;;;1.85;;
11187;SDS011;5650;52.700;7.306;2022-11-04T14:16:44;3.88;;;1.38;;
11187;SDS011;5650;52.700;7.306;2022-11-04T14:22:24;4.30;;;1.30;;
11187;SDS011;5650;52.700;7.306;2022-11-04T14:24:57;4.78;;;1.30;;
11187;SDS011;5650;52.700;7.306;2022-11-04T14:27:42;4.82;;;1.50;;
11187;SDS011;5650;52.700;7.306;2022-11-04T14:30:25;3.60;;;1.00;;
11187;SDS011;5650;52.700;7.306;2022-11-04T14:33:16;2.13;;;0.98;;
11187;SDS011;5650;52.700;7.306;2022-11-04T14:36:20;5.03;;;0.82;;
11187;SDS011;5650;52.700;7.306;2022-11-04T14:38:59;3.00;;;0.80;;
11187;SDS011;5650;52.700;7.306;2022-11-04T14:44:37;3.28;;;1.10;;
11187;SDS011;5650;52.700;7.306;2022-11-04T14:47:13;4.05;;;1.40;;
11187;SDS011;5650;52.700;7.306;2022-11-04T14:49:43;3.25;;;1.23;;
11187;SDS011;5650;52.700;7.306;2022-11-04T14:52:18;5.45;;;1.58;;
11187;SDS011;5650;52.700;7.306;2022-11-04T14:54:55;2.90;;;1.17;;
11187;SDS011;5650;52.700;7.306;2022-11-04T14:57:28;4.47;;;1.63;;
11187;SDS011;5650;52.700;7.306;2022-11-04T15:03:11;3.33;;;1.30;;
11187;SDS011;5650;52.700;7.306;2022-11-04T15:05:45;6.18;;;1.30;;
11187;SDS011;5650;52.700;7.306;2022-11-04T15:08:25;5.35;;;1.65;;
11187;SDS011;5650;52.700;7.306;2022-11-04T15:10:56;4.15;;;1.50;;
11187;SDS011;5650;52.700;7.306;2022-11-04T15:13:24;5.10;;;1.45;;
11187;SDS011;5650;52.700;7.306;2022-11-04T15:15:53;6.03;;;1.55;;
11187;SDS011;5650;52.700;7.306;2022-11-04T15:18:24;6.38;;;1.67;;
11187;SDS011;5650;52.700;7.306;2022-11-04T15:20:54;5.65;;;1.52;;
11187;SDS011;5650;52.700;7.306;2022-11-04T15:23:27;4.57;;;1.48;;
11187;SDS011;5650;52.700;7.306;2022-11-04T15:25:57;5.82;;;1.60;;
11187;SDS011;5650;52.700;7.306;2022-11-04T15:28:32;5.38;;;2.33;;
11187;SDS011;5650;52.700;7.306;2022-11-04T15:31:15;4.75;;;1.95;;
11187;SDS011;5650;52.700;7.306;2022-11-04T15:33:46;5.53;;;1.73;;
11187;SDS011;5650;52.700;7.306;2022-11-04T15:36:16;4.68;;;1.85;;
11187;SDS011;5650;52.700;7.306;2022-11-04T15:38:50;6.05;;;2.13;;
11187;SDS011;5650;52.700;7.306;2022-11-04T15:41:21;4.35;;;1.60;;
11187;SDS011;5650;52.700;7.306;2022-11-04T15:44:13;3.72;;;1.73;;
11187;SDS011;5650;52.700;7.306;2022-11-04T15:46:53;8.00;;;2.00;;
11187;SDS011;5650;52.700;7.306;2022-11-04T15:49:22;6.75;;;1.90;;
11187;SDS011;5650;52.700;7.306;2022-11-04T15:51:57;9.02;;;2.80;;
11187;SDS011;5650;52.700;7.306;2022-11-04T15:54:28;5.55;;;2.47;;
11187;SDS011;5650;52.700;7.306;2022-11-04T15:56:58;8.52;;;2.65;;
11187;SDS011;5650;52.700;7.306;2022-11-04T15:59:34;6.47;;;2.80;;
11187;SDS011;5650;52.700;7.306;2022-11-04T16:02:16;6.82;;;2.50;;
11187;SDS011;5650;52.700;7.306;2022-11-04T16:05:04;9.02;;;2.53;;
11187;SDS011;5650;52.700;7.306;2022-11-04T16:07:36;7.55;;;3.00;;
11187;SDS011;5650;52.700;7.306;2022-11-04T16:12:53;7.55;;;2.30;;
11187;SDS011;5650;52.700;7.306;2022-11-04T16:15:40;5.40;;;3.30;;